Ana Sayfa
METAR-TAF:

METAR-TAF

Havaalanları :

Vineyard Haven, Massachusetts, Amerika Birleşik Devletleri

Enlem: 41-23-32N, Boylam: 070-37-00W, yükseklik: 20 m

Güncel hava durumu gözlemi

Rapor saat 07:04 UTC de 34 dakika önce yapıldı.
Rüzgar doğu/güneydoğudan 19 kt ve 30 kt'a kadar ani rüzgarlar
Sıcaklık 11°C
Nem 100%
Basınç 1013 hPa
Görüş mesafesi: 6.4 km
400 ft yükseklikte çok bulutlu
yağmur, Pus

METAR: KMVY 140704Z AUTO 11019G30KT 4SM RA BR OVC004 11/11 A2991 RMK AO2 PK WND 13030/0657 P0002 T01110106

Saat: 02:38 (07:38 UTC)


TAF: eksik

4.000'den fazla havaalanı için hava durumu gözlemleri ve tahminleri (METAR ve TAF raporları).

Kullanılabilir istasyonlar harita üzerinde sarı ve kırmızı noktalarla gösterilir.

İstasyonun adını görmek için fareyi noktanın üzerinde gezdirin.

Sonrasında hava gözlem ve tahminlerini görmek için tıklayın.

Haritayı değiştirmek için: yaklaştırmak için siyah artı işaretli yeşil düğmeye ve uzaklaştırmak için de eksi işaretli düğmeye hızla tıklayın; bitişik haritalar için yeşil okları kullanın.


METAR-TAF: